HQM - Bowerman

Pirep is a free, collaborative database of all public and private airports located within the United States. All pilots are welcome to contribute, edit, and improve any airport they have local knowledge about, no registration required.
Uploaded photos will be licensed under a CC BY-SA 4.0 license. Please only upload photos you have the rights to use.
Tags
Public
METAR / TAF
Edit Tags
Food
Camping
Lodging
Car Rental
Bicycles
Swimming
Golfing
Fishing
Hot Springs
Museum
Flying Clubs
Airpark
Upcoming Events
No upcoming events. Is anything happening here soon?
*
*
*

Where exactly on/near the airport is this event taking place?

Is there a webpage with more information for this event?

Who should be contacted for more information?

What is this event all about?

Repeat every
Description
Last updated: 2023-03-07 10:34:57 PST
Transient Parking
Last updated: 2023-03-07 10:33:35 PST
Fuel Location
Last updated: 2023-03-07 10:33:49 PST
Landing & Tie-down Fees
Crew Car Availability
Flying Clubs
WiFi Access
Airport Statistics
Location: Hoquiam, WA
Elevation: 17ft
Sectional: Seattle
Activation date: Apr 1944
Fuel: 100LL, A (prices)
Runway 06/24: 5,000ft
Access: Open to the public
Current Weather — MVFR
  • Weather data is strictly informational and not for flight planning purposes.
  • METAR
    2024-04-24 03:53:00 PDT
    Ceiling Wind Temperature Dewpoint Weather Visbility
    1,400ft 260° @ 6kt 50°F 46°F N/A 10SM
    Clouds: Broken @ 1,400ft, Overcast @ 2,000ft
    Raw: KHQM 241053Z AUTO 26006KT 10SM BKN014 OVC020 10/08 A3004 RMK AO2 SLP175 T01000078
  • TAF
    2024-04-24 05:00:00 PDT – 2024-04-24 11:00:00 PDT
    Ceiling Wind Weather Visbility
    1,500ft 270° @ 4kt Showers in vicinity 6SM
    Clouds: Overcast @ 1,500ft
    Raw: KHQM 241123Z 2412/2512 27004KT P6SM VCSH OVC015 TEMPO 2412/2416 4SM BR OVC007 FM241800 24008KT P6SM VCSH OVC015 FM250100 27006KT 4SM -SHRA BR OVC010 FM250800 16006KT P6SM -RA OVC007
  • TAF
    2024-04-24 05:00:00 PDT – 2024-04-24 09:00:00 PDT
    Ceiling Wind Weather Visbility
    700ft ° @ kt Mist 4SM
    Clouds: Overcast @ 700ft
    Raw: KHQM 241123Z 2412/2512 27004KT P6SM VCSH OVC015 TEMPO 2412/2416 4SM BR OVC007 FM241800 24008KT P6SM VCSH OVC015 FM250100 27006KT 4SM -SHRA BR OVC010 FM250800 16006KT P6SM -RA OVC007
  • TAF
    2024-04-24 11:00:00 PDT – 2024-04-24 18:00:00 PDT
    Ceiling Wind Weather Visbility
    1,500ft 240° @ 8kt Showers in vicinity 6SM
    Clouds: Overcast @ 1,500ft
    Raw: KHQM 241123Z 2412/2512 27004KT P6SM VCSH OVC015 TEMPO 2412/2416 4SM BR OVC007 FM241800 24008KT P6SM VCSH OVC015 FM250100 27006KT 4SM -SHRA BR OVC010 FM250800 16006KT P6SM -RA OVC007
  • TAF
    2024-04-24 18:00:00 PDT – 2024-04-25 01:00:00 PDT
    Ceiling Wind Weather Visbility
    1,000ft 270° @ 6kt Light rain showers, mist 4SM
    Clouds: Overcast @ 1,000ft
    Raw: KHQM 241123Z 2412/2512 27004KT P6SM VCSH OVC015 TEMPO 2412/2416 4SM BR OVC007 FM241800 24008KT P6SM VCSH OVC015 FM250100 27006KT 4SM -SHRA BR OVC010 FM250800 16006KT P6SM -RA OVC007
  • TAF
    2024-04-25 01:00:00 PDT – 2024-04-25 05:00:00 PDT
    Ceiling Wind Weather Visbility
    700ft 160° @ 6kt Light rain 6SM
    Clouds: Overcast @ 700ft
    Raw: KHQM 241123Z 2412/2512 27004KT P6SM VCSH OVC015 TEMPO 2412/2416 4SM BR OVC007 FM241800 24008KT P6SM VCSH OVC015 FM250100 27006KT 4SM -SHRA BR OVC010 FM250800 16006KT P6SM -RA OVC007
Click/tap to add an annotation marker to the map
Airport Webcams
No webcams added yet.
Direct links to live image URLs will be displayed inline on this page. URLs to separate webpages will be linked to.
URL:
Direct links to live image URLs will be displayed inline on this page. URLs to separate webpages will be linked to.
URL:
Remarks
  • This airport has been surveyed by the national geodetic survey.
  • Estabd prior to 1959.
  • <flocks of waterfowl on and in vcnty arpt. caution adzd.
  • Service road south of ry in primary surface.
  • Ultralights prohibited without written permisson from arpt mgr.
  • 103 ft crane 0.2 nm sw of aer ry 24.
  • For cd if una to ctc on fss freq, ctc seattle artcc at 253-351-3694.
  • Actvt hirl ry 06/24, papi rwy 06/24, malsr ry 24 & reil ry 06 - ctaf.
Comments
Leave a comment What was your experience like at this airport?